Flight Track Log - Related Links

Times and Time Zones

All times are in EST time to prevent confusion due to time zone crossing. See the FSR411 flight status page for this flight to view local times or setup timezone preferences in your user account.

Time Position Orientation Groundspeed Altitude Reporting Facility
EST Latitude Longitude Course Direction KTS MPH feet Rate Location/Type
Tue 13:06:39 38.2833 -104.5500 270° West 197 227 6,400  Level Denver TRACON
Tue 13:07:27 38.2833 -104.6167 270° West 256 295 8,000 2,845 Climbing Denver TRACON
Tue 13:08:35 38.2939 -104.7278 277° West 268 308 11,900 3,462 Climbing Denver Center
Tue 13:09:37 38.2986 -104.8356 273° West 305 351 15,500 3,871 Climbing Denver Center
Tue 13:10:39 38.3022 -104.9517 272° West 332 382 19,900 4,452 Climbing Denver Center
Tue 13:11:41 38.3058 -105.0792 272° West 328 377 24,700 3,581 Climbing Denver Center
Tue 13:12:43 38.3089 -105.1883 272° West 324 373 27,300 2,468 Climbing Denver Center
Tue 13:13:45 38.3133 -105.3197 273° West 331 381 29,800 1,839 Climbing Denver Center
Tue 13:14:47 38.3169 -105.4406 272° West 349 402 31,100 1,452 Climbing Denver Center
Tue 13:15:49 38.3208 -105.5911 272° West 375 432 32,800 1,500 Climbing Denver Center
Tue 13:16:51 38.3239 -105.7222 272° West 384 442 34,200 1,210 Climbing Denver Center
Tue 13:17:53 38.3275 -105.8792 272° West 394 453 35,300 1,065 Climbing Denver Center
Tue 13:18:55 38.3308 -106.0172 272° West 403 464 36,400 1,742 Climbing Denver Center
Tue 13:19:57 38.3339 -106.1744 271° West 401 461 38,900 1,728 Climbing Denver Center
Tue 13:21:00 38.3367 -106.3067 272° West 356 410 40,000 528 Climbing Denver Center
Tue 13:22:02 38.3392 -106.4331 271° West 367 422 40,000  Level Denver Center
Tue 13:23:04 38.3414 -106.5914 271° West 396 456 40,000  Level Denver Center
Tue 13:24:06 38.3439 -106.7325 271° West 415 478 40,000  Level Denver Center
Tue 13:25:08 38.3461 -106.8747 271° West 419 482 40,000  Level Denver Center
Tue 13:26:10 38.3483 -107.0419 271° West 422 486 40,000  Level Denver Center
Tue 13:27:12 38.3503 -107.1858 271° West 423 487 40,000  Level Denver Center
Tue 13:28:14 38.3519 -107.3519 271° West 421 484 40,000  Level Denver Center
Tue 13:29:16 38.3531 -107.4956 271° West 423 487 40,000  Level Denver Center
Tue 13:30:18 38.3547 -107.6658 271° West 427 491 40,000  Level Denver Center
Tue 13:31:20 38.3550 -107.8100 270° West 426 490 40,000  Level Denver Center
Tue 13:32:22 38.3569 -107.9764 271° West 423 487 40,000  Level Denver Center
Tue 13:33:24 38.3583 -108.1200 271° West 423 487 40,000  Level Denver Center
Tue 13:34:26 38.3592 -108.2892 270° West 425 489 40,000  Level Denver Center
Tue 13:35:28 38.3594 -108.4336 270° West 425 489 40,000  Level Denver Center
Tue 13:36:30 38.3592 -108.5778 270° West 425 489 40,000  Level Denver Center
Tue 13:37:32 38.3589 -108.7483 270° West 428 493 40,000  Level Denver Center
Tue 13:38:35 38.3597 -108.8931 270° West 428 493 40,000  Level Denver Center
Tue 13:39:37 38.3581 -109.0608 269° West 424 488 40,000  Level Denver Center
Tue 13:40:39 38.3578 -109.2056 270° West 426 490 40,000  Level Denver Center
Tue 13:41:41 38.3564 -109.3744 269° West 426 490 40,000  Level Denver Center
Tue 13:42:55 38.3553 -109.5414 270° West 423 487 40,000  Level Denver Center
Tue 13:43:57 38.3542 -109.7089 270° West 423 487 40,000  Level Denver Center
Tue 13:44:59 38.3528 -109.8517 269° West 422 486 40,000  Level Denver Center
Tue 13:46:01 38.3506 -110.0189 269° West 422 486 40,000  Level Denver Center
Tue 13:47:03 38.3486 -110.1633 269° West 425 489 40,000  Level Denver Center
Tue 13:48:06 38.3458 -110.3319 269° West 425 489 40,000  Level Denver Center
Tue 13:49:08 38.3450 -110.4769 270° West 427 491 40,000  Level Denver Center
Tue 13:50:10 38.3411 -110.6447 268° West 425 489 40,000  Level Denver Center
Tue 13:51:12 38.3389 -110.7897 269° West 427 491 40,000  Level Denver Center
Tue 13:51:28 38.3400 -110.8400 272° West 427 491 40,000  Level Salt Center
Tue 13:52:14 38.3356 -110.9572 267° West 424 488 40,000  Level Denver Center
Tue 13:52:30 38.3369 -110.9889 273° West 424 488 40,000  Level Salt Center
Tue 13:53:32 38.3342 -111.1392 269° West 426 490 40,000  Level Salt Center
Tue 13:54:34 38.3303 -111.2900 268° West 427 491 40,000  Level Salt Center
Tue 13:55:36 38.3272 -111.4403 269° West 426 490 40,000  Level Salt Center
Tue 13:56:37 38.3225 -111.6217 268° West 428 493 40,000  Level Salt Center
Tue 13:57:39 38.3181 -111.7714 268° West 427 491 40,000  Level Salt Center
Tue 13:58:41 38.3147 -111.9233 268° West 429 494 40,000  Level Salt Center
Tue 13:59:43 38.3094 -112.0736 267° West 429 494 40,000  Level Salt Center
Tue 14:00:45 38.3050 -112.2242 268° West 428 493 40,000  Level Salt Center
Tue 14:01:47 38.3006 -112.3744 268° West 428 493 40,000  Level Salt Center
Tue 14:02:49 38.2942 -112.5558 267° West 429 494 40,000  Level Salt Center
Tue 14:03:50 38.2892 -112.7078 268° West 431 496 40,000  Level Salt Center
Tue 14:04:52 38.2844 -112.8614 268° West 435 501 40,000  Level Salt Center
Tue 14:05:54 38.2786 -113.0131 267° West 434 499 40,000  Level Salt Center
Tue 14:06:56 38.2725 -113.1669 267° West 437 503 40,000  Level Salt Center
Tue 14:07:58 38.2653 -113.3511 267° West 438 504 40,000  Level Salt Center
Tue 14:09:00 38.2586 -113.5053 267° West 439 505 40,000  Level Salt Center
Tue 14:10:01 38.2528 -113.6600 267° West 439 505 40,000  Level Salt Center
Tue 14:11:03 38.2453 -113.8153 267° West 441 507 40,000  Level Salt Center
Tue 14:12:05 38.2386 -113.9708 267° West 443 510 40,000  Level Salt Center
Tue 14:13:07 38.2314 -114.1275 267° West 444 511 40,000  Level Salt Center
Tue 14:14:09 38.2222 -114.3169 267° West 447 514 40,000  Level Salt Center
Tue 14:15:11 38.2144 -114.4719 266° West 444 511 40,000  Level Salt Center
Tue 14:16:13 38.2064 -114.6292 266° West 446 513 40,000  Level Salt Center
Tue 14:17:14 38.1983 -114.7869 266° West 448 516 40,000  Level Salt Center
Tue 14:18:16 38.1892 -114.9442 266° West 448 516 40,000  Level Salt Center
Tue 14:19:18 38.1808 -115.1003 266° West 445 512 40,000  Level Salt Center
Tue 14:20:20 38.1708 -115.2881 266° West 446 513 40,000  Level Salt Center
Tue 14:21:22 38.1617 -115.4336 265° West 445 512 40,000  Level Salt Center
Tue 14:22:24 38.1531 -115.5903 266° West 445 512 40,000  Level Salt Center
Tue 14:23:26 38.1442 -115.7472 266° West 446 513 40,000  Level Salt Center
Tue 14:24:27 38.1336 -115.9044 265° West 446 513 40,000  Level Salt Center
Tue 14:25:29 38.1214 -116.0931 265° West 447 514 40,000  Level Salt Center
Tue 14:26:31 38.1117 -116.2500 266° West 447 514 40,000  Level Salt Center
Tue 14:27:33 38.1014 -116.4081 265° West 448 516 40,000  Level Salt Center
Tue 14:28:35 38.0908 -116.5664 265° West 449 517 40,000  Level Salt Center
Tue 14:29:36 38.0797 -116.7247 265° West 450 518 40,000  Level Salt Center
Tue 14:30:41 38.0661 -116.9153 265° West 452 520 40,000  Level Oakland Center
Tue 14:31:43 38.0556 -117.0744 265° West 448 516 40,000  Level Oakland Center
Tue 14:32:44 38.0458 -117.2056 265° West 449 517 40,000  Level Oakland Center
Tue 14:33:45 38.0256 -117.3672 261° West 452 520 40,000  Level Oakland Center
Tue 14:34:46 37.9719 -117.5461 249° West 451 519 40,000  Level Oakland Center
Tue 14:35:47 37.9281 -117.6944 249° West 449 517 40,000  Level Oakland Center
Tue 14:36:49 37.8847 -117.8428 250° West 449 517 40,000  Level Oakland Center
Tue 14:37:50 37.8400 -117.9903 249° West 449 517 40,000  Level Oakland Center
Tue 14:38:51 37.7972 -118.1372 250° West 446 513 40,000 -836 Level Oakland Center
Tue 14:39:52 37.7531 -118.2858 249° West 449 517 38,300 -1,918 Descending Oakland Center
Tue 14:40:53 37.7083 -118.4322 249° West 448 516 36,100 -2,195 Descending Oakland Center
Tue 14:41:55 37.6633 -118.5881 250° West 467 537 33,800 -2,244 Descending Oakland Center
Tue 14:42:56 37.6136 -118.7481 249° West 488 562 31,500 -1,869 Descending Oakland Center
Tue 14:43:57 37.5575 -118.9228 248° West 483 556 30,000 -738 Descending Oakland Center
Tue 14:44:58 37.5075 -119.0869 249° West 496 571 30,000 -537 Level Oakland Center
Tue 14:46:00 37.4553 -119.2603 249° West 532 612 28,900 -1,366 Descending Oakland Center
Tue 14:47:01 37.4031 -119.4264 248° West 514 592 27,200 -1,721 Descending Oakland Center
Tue 14:48:02 37.3544 -119.5756 248° West 505 581 25,400 -1,967 Descending Oakland Center
Tue 14:49:03 37.3028 -119.7419 249° West 483 556 23,200 -2,066 Descending Oakland Center
Tue 14:50:04 37.2711 -119.9117 257° West 439 505 21,200 -1,561 Descending Oakland Center
Tue 14:51:06 37.2556 -120.0633 263° West 437 503 20,000 -585 Descending Oakland Center
Tue 14:52:07 37.2381 -120.2153 262° West 439 505 20,000  Level Oakland Center
Tue 14:53:08 37.2208 -120.3669 262° West 438 504 20,000 -214 Level Oakland Center
Tue 14:53:31 37.2167 -120.4333 266° West 448 516 19,700 -1,735 Descending Northern TRACON
Tue 14:54:31 37.1833 -120.5667 253° West 469 540 17,600 -2,526 Descending Northern TRACON
Tue 14:55:25 37.1500 -120.7000 253° West 390 449 14,900 -2,579 Descending Northern TRACON
Tue 14:56:25 37.1333 -120.8167 260° West 371 427 12,700 -1,833 Descending Northern TRACON
Tue 14:57:13 37.1117 -120.8983 252° West 347 399 11,600 -1,431 Descending Oakland Center
Tue 14:58:14 37.0958 -121.0300 261° West 377 434 10,100 -836 Descending Oakland Center
Tue 14:59:15 37.0842 -121.1619 264° West 372 428 9,900 -98 Descending Oakland Center
Tue 15:00:17 37.0722 -121.2867 263° West 366 421 9,900 -341 Level Oakland Center
Tue 15:01:18 37.0608 -121.3981 263° West 341 392 9,200 -976 Descending Oakland Center
Tue 15:02:20 37.0592 -121.5011 269° West 307 353 7,900 -1,659 Descending Oakland Center
Tue 15:03:21 37.1131 -121.5958 306° West 292 336 5,800 -1,475 Descending Oakland Center
Tue 15:04:22 37.1475 -121.6803 297° West 273 314 4,900 -689 Descending Oakland Center
Tue 15:05:23 37.1883 -121.7458 308° West 254 292 4,400 -885 Descending Oakland Center
Tue 15:06:24 37.2375 -121.7983 320° Northwest 241 277 3,100 -1,220 Descending Oakland Center
Tue 15:07:26 37.2844 -121.8458 321° Northwest 226 260 1,900 -1,073 Descending Oakland Center
Tue 15:08:27 37.3239 -121.8889 319° Northwest 205 236 900 -885 Descending Oakland Center
Tue 15:09:28 37.3536 -121.9217 319° Northwest 162 186 100 9,393 Descending Oakland Center
Tue 15:10:29 37.3639 -121.9342 316° Northwest 84 97 20,000 9,707 Climbing Oakland Center
Tue 15:11:31 37.3619 -121.9375 234° Southwest 46 53 20,000  Level Oakland Center

Login

Don't have an account? Register now (free) for customized features, flight alerts, and more!